createdAt,value
2019-01-27T00:00:40.366Z,0.00
2019-01-27T00:01:40.334Z,0.00
2019-01-27T00:02:40.326Z,0.00
2019-01-27T00:03:40.315Z,0.00
2019-01-27T00:04:40.302Z,0.00
2019-01-27T00:05:40.312Z,0.00
2019-01-27T00:06:40.279Z,0.00
2019-01-27T00:07:40.267Z,0.00
2019-01-27T00:08:40.263Z,0.00
2019-01-27T00:09:40.246Z,0.00
2019-01-27T00:10:40.256Z,0.00
2019-01-27T00:11:40.223Z,0.00
2019-01-27T00:12:40.212Z,0.00
2019-01-27T00:13:40.200Z,0.00
2019-01-27T00:14:40.189Z,0.00
2019-01-27T00:15:40.199Z,0.00
2019-01-27T00:16:40.167Z,0.00
2019-01-27T00:17:40.160Z,0.00
2019-01-27T00:18:40.147Z,0.00
2019-01-27T00:19:40.135Z,0.00
2019-01-27T00:20:40.148Z,0.00
2019-01-27T00:21:40.114Z,0.00
2019-01-27T00:22:40.102Z,0.00
2019-01-27T00:23:40.093Z,0.00
2019-01-27T00:24:40.080Z,0.00
2019-01-27T00:25:40.100Z,0.00
2019-01-27T00:26:40.060Z,0.00
2019-01-27T00:27:40.045Z,0.00
2019-01-27T00:28:40.037Z,0.00
2019-01-27T00:29:40.024Z,0.00
2019-01-27T00:30:40.050Z,0.00
2019-01-27T00:31:40.001Z,0.00
2019-01-27T00:32:39.990Z,0.00
2019-01-27T00:33:39.980Z,0.00
2019-01-27T00:34:39.967Z,0.00
2019-01-27T00:35:39.956Z,0.00
2019-01-27T00:36:39.964Z,0.00
2019-01-27T00:37:39.937Z,0.00
2019-01-27T00:38:39.958Z,0.00
2019-01-27T00:39:39.917Z,0.00
2019-01-27T00:40:39.901Z,0.00
2019-01-27T00:41:39.909Z,0.00
2019-01-27T00:42:39.911Z,0.00
2019-01-27T00:43:39.885Z,0.00
2019-01-27T00:44:39.857Z,0.00
2019-01-27T00:45:39.846Z,0.00
2019-01-27T00:46:39.858Z,0.00
2019-01-27T00:47:39.829Z,0.00
2019-01-27T00:48:39.814Z,0.00
2019-01-27T00:49:39.804Z,0.00
2019-01-27T00:50:39.790Z,0.00
2019-01-27T00:51:39.801Z,0.00
2019-01-27T00:52:39.773Z,0.00
2019-01-27T00:53:39.756Z,0.00
2019-01-27T00:54:39.748Z,0.00
2019-01-27T00:55:39.734Z,0.00
2019-01-27T00:56:39.743Z,0.00
2019-01-27T00:57:39.727Z,0.00
2019-01-27T00:58:39.700Z,0.00
2019-01-27T00:59:39.692Z,0.00
2019-01-27T01:00:39.679Z,0.00
2019-01-27T01:01:39.702Z,0.00
2019-01-27T01:02:39.658Z,0.00
2019-01-27T01:03:39.645Z,0.00
2019-01-27T01:04:39.634Z,0.00
2019-01-27T01:05:39.624Z,0.00
2019-01-27T01:06:39.616Z,0.00
2019-01-27T01:07:39.619Z,0.00
2019-01-27T01:08:39.589Z,0.00
2019-01-27T01:09:39.584Z,0.00
2019-01-27T01:10:39.570Z,0.00
2019-01-27T01:11:39.556Z,0.00
2019-01-27T01:12:39.563Z,0.00
2019-01-27T01:13:39.534Z,0.00
2019-01-27T01:14:39.524Z,0.00
2019-01-27T01:15:39.533Z,0.00
2019-01-27T01:16:39.509Z,0.00
2019-01-27T01:17:39.515Z,0.00
2019-01-27T01:18:39.479Z,0.00
2019-01-27T01:19:39.466Z,0.00
2019-01-27T01:20:39.457Z,0.00
2019-01-27T01:21:39.445Z,0.00
2019-01-27T01:22:39.455Z,0.00
2019-01-27T01:23:39.423Z,0.00
2019-01-27T01:24:39.411Z,0.00
2019-01-27T01:25:39.404Z,0.00
2019-01-27T01:26:39.389Z,0.00
2019-01-27T01:27:39.402Z,0.00
2019-01-27T01:28:39.368Z,0.00
2019-01-27T01:29:39.356Z,0.00
2019-01-27T01:30:39.344Z,0.00
2019-01-27T01:31:39.333Z,0.00
2019-01-27T01:32:39.344Z,0.00
2019-01-27T01:33:39.311Z,0.00
2019-01-27T01:34:39.305Z,0.00
2019-01-27T01:35:39.290Z,0.00
2019-01-27T01:36:39.277Z,0.00
2019-01-27T01:37:39.286Z,0.00
2019-01-27T01:38:39.259Z,0.00
2019-01-27T01:39:39.251Z,0.00
2019-01-27T01:40:39.237Z,0.00
2019-01-27T01:41:39.223Z,0.00
2019-01-27T01:42:39.236Z,0.00
2019-01-27T01:43:39.200Z,0.00
2019-01-27T01:44:39.192Z,0.00
2019-01-27T01:45:39.180Z,0.00
2019-01-27T01:46:39.167Z,0.00
2019-01-27T01:47:39.189Z,0.00
2019-01-27T01:48:39.144Z,0.00
2019-01-27T01:49:39.136Z,0.00
2019-01-27T01:50:39.122Z,0.00
2019-01-27T01:51:39.111Z,0.00
2019-01-27T01:52:39.100Z,0.00
2019-01-27T01:53:39.110Z,0.00
2019-01-27T01:54:39.080Z,0.00
2019-01-27T01:55:39.072Z,0.00
2019-01-27T01:56:39.060Z,0.00
2019-01-27T01:57:39.045Z,0.00
2019-01-27T01:58:39.056Z,0.00
2019-01-27T01:59:39.024Z,0.00
2019-01-27T02:00:39.013Z,0.00
2019-01-27T02:01:39.000Z,0.00
2019-01-27T02:02:38.989Z,0.00
2019-01-27T02:03:38.998Z,0.00
2019-01-27T02:04:38.970Z,0.00
2019-01-27T02:05:38.956Z,0.00
2019-01-27T02:06:38.948Z,0.00
2019-01-27T02:07:38.938Z,0.00
2019-01-27T02:08:38.942Z,0.00
2019-01-27T02:09:38.911Z,0.00
2019-01-27T02:10:38.902Z,0.00
2019-01-27T02:11:38.889Z,0.00
2019-01-27T02:12:38.880Z,0.00
2019-01-27T02:13:38.904Z,0.00
2019-01-27T02:14:38.856Z,0.00
2019-01-27T02:15:38.845Z,0.00
2019-01-27T02:16:38.834Z,0.00
2019-01-27T02:17:38.824Z,0.00
2019-01-27T02:18:38.814Z,0.00
2019-01-27T02:19:38.823Z,0.00
2019-01-27T02:20:38.791Z,0.00
2019-01-27T02:21:38.780Z,0.00
2019-01-27T02:22:38.768Z,0.00
2019-01-27T02:23:38.756Z,0.00
2019-01-27T02:24:38.769Z,0.00
2019-01-27T02:25:38.736Z,0.00
2019-01-27T02:26:38.721Z,0.00
2019-01-27T02:27:38.711Z,0.00
2019-01-27T02:28:38.699Z,0.00
2019-01-27T02:29:38.730Z,0.00
2019-01-27T02:30:38.677Z,0.00
2019-01-27T02:31:38.672Z,0.00
2019-01-27T02:32:38.655Z,0.00
2019-01-27T02:33:38.642Z,0.00
2019-01-27T02:34:38.639Z,0.00
2019-01-27T02:35:38.643Z,0.00
2019-01-27T02:36:38.611Z,0.00
2019-01-27T02:37:38.599Z,0.00
2019-01-27T02:38:38.594Z,0.00
2019-01-27T02:39:38.582Z,0.00
2019-01-27T02:40:38.588Z,0.00
2019-01-27T02:41:38.556Z,0.00
2019-01-27T02:42:38.543Z,0.00
2019-01-27T02:43:38.532Z,0.00
2019-01-27T02:44:38.521Z,0.00
2019-01-27T02:45:38.529Z,0.00
2019-01-27T02:46:38.500Z,0.00
2019-01-27T02:47:38.487Z,0.00
2019-01-27T02:48:38.476Z,0.00
2019-01-27T02:49:38.469Z,0.00
2019-01-27T02:50:38.477Z,0.00
2019-01-27T02:51:38.443Z,0.00
2019-01-27T02:52:38.431Z,0.00
2019-01-27T02:53:38.420Z,0.00
2019-01-27T02:54:38.408Z,0.00
2019-01-27T02:55:38.422Z,0.00
2019-01-27T02:56:38.387Z,0.00
2019-01-27T02:57:38.375Z,0.00
2019-01-27T02:58:38.365Z,0.00
2019-01-27T02:59:38.356Z,0.00
2019-01-27T03:00:38.363Z,0.00
2019-01-27T03:01:38.334Z,0.00
2019-01-27T03:02:38.321Z,0.00
2019-01-27T03:03:38.309Z,0.00
2019-01-27T03:04:38.300Z,0.00
2019-01-27T03:05:38.314Z,0.00
2019-01-27T03:06:38.288Z,0.00
2019-01-27T03:07:38.265Z,0.00
2019-01-27T03:08:38.253Z,0.00
2019-01-27T03:09:38.245Z,0.00
2019-01-27T03:10:38.234Z,0.00
2019-01-27T03:11:38.238Z,0.00
2019-01-27T03:12:38.216Z,0.00
2019-01-27T03:13:38.205Z,0.00
2019-01-27T03:14:38.191Z,0.00
2019-01-27T03:15:38.177Z,0.00
2019-01-27T03:16:38.184Z,0.00
2019-01-27T03:17:38.155Z,0.00
2019-01-27T03:18:38.141Z,0.00
2019-01-27T03:19:38.131Z,0.00
2019-01-27T03:20:38.119Z,0.00
2019-01-27T03:21:38.130Z,0.00
2019-01-27T03:22:38.102Z,0.00
2019-01-27T03:23:38.086Z,0.00
2019-01-27T03:24:38.079Z,0.00
2019-01-27T03:25:38.065Z,0.00
2019-01-27T03:26:38.076Z,0.00
2019-01-27T03:27:38.041Z,0.00
2019-01-27T03:28:38.031Z,0.00
2019-01-27T03:29:38.022Z,0.00
2019-01-27T03:30:38.011Z,0.00
2019-01-27T03:31:38.046Z,0.00
2019-01-27T03:32:37.999Z,0.00
2019-01-27T03:33:37.977Z,0.00
2019-01-27T03:34:37.966Z,0.00
2019-01-27T03:35:37.957Z,0.00
2019-01-27T03:36:37.977Z,0.00
2019-01-27T03:37:37.931Z,0.00
2019-01-27T03:38:37.928Z,0.00
2019-01-27T03:39:37.914Z,0.00
2019-01-27T03:40:37.906Z,0.00
2019-01-27T03:41:37.889Z,0.00
2019-01-27T03:42:37.894Z,0.00
2019-01-27T03:43:37.868Z,0.00
2019-01-27T03:44:37.856Z,0.00
2019-01-27T03:45:37.846Z,0.00
2019-01-27T03:46:37.834Z,0.00
2019-01-27T03:47:37.844Z,0.00
2019-01-27T03:48:37.814Z,0.00
2019-01-27T03:49:37.807Z,0.00
2019-01-27T03:50:37.788Z,0.00
2019-01-27T03:51:37.782Z,0.00
2019-01-27T03:52:37.787Z,0.00
2019-01-27T03:53:37.753Z,0.00
2019-01-27T03:54:37.750Z,0.00
2019-01-27T03:55:37.734Z,0.00
2019-01-27T03:56:37.727Z,0.00
2019-01-27T03:57:37.743Z,0.00
2019-01-27T03:58:37.696Z,0.00
2019-01-27T03:59:37.688Z,0.00
2019-01-27T04:00:37.678Z,0.00
2019-01-27T04:01:37.666Z,0.00
2019-01-27T04:02:37.658Z,0.00
2019-01-27T04:03:37.667Z,0.00
2019-01-27T04:04:37.631Z,0.00
2019-01-27T04:05:37.621Z,0.00
2019-01-27T04:06:37.608Z,0.00
2019-01-27T04:07:37.599Z,0.00
2019-01-27T04:08:37.607Z,0.00
2019-01-27T04:09:37.576Z,0.00
2019-01-27T04:10:37.566Z,0.00
2019-01-27T04:11:37.553Z,0.00
2019-01-27T04:12:37.542Z,0.00
2019-01-27T04:13:37.551Z,0.00
2019-01-27T04:14:37.530Z,0.00
2019-01-27T04:15:37.513Z,0.00
2019-01-27T04:16:37.500Z,0.00
2019-01-27T04:17:37.489Z,0.00
2019-01-27T04:18:37.535Z,0.00
2019-01-27T04:19:37.468Z,0.00
2019-01-27T04:20:37.454Z,0.00
2019-01-27T04:21:37.449Z,0.00
2019-01-27T04:22:37.432Z,0.00
2019-01-27T04:23:37.420Z,0.00
2019-01-27T04:24:37.428Z,0.00
2019-01-27T04:25:37.403Z,0.00
2019-01-27T04:26:37.405Z,0.00
2019-01-27T04:27:37.377Z,0.00
2019-01-27T04:28:37.370Z,0.00
2019-01-27T04:29:37.377Z,0.00
2019-01-27T04:30:37.341Z,0.00
2019-01-27T04:31:37.331Z,0.00
2019-01-27T04:32:37.319Z,0.00
2019-01-27T04:33:37.878Z,0.00
2019-01-27T04:34:37.315Z,0.00
2019-01-27T04:35:37.288Z,0.00
2019-01-27T04:36:37.276Z,0.00
2019-01-27T04:37:37.265Z,0.00
2019-01-27T04:38:37.254Z,0.00
2019-01-27T04:39:37.259Z,0.00
2019-01-27T04:40:37.230Z,0.00
2019-01-27T04:41:37.219Z,0.00
2019-01-27T04:42:37.215Z,0.00
2019-01-27T04:43:37.197Z,0.00
2019-01-27T04:44:37.202Z,0.00
2019-01-27T04:45:37.173Z,0.00
2019-01-27T04:46:37.163Z,0.00
2019-01-27T04:47:37.153Z,0.00
2019-01-27T04:48:37.146Z,0.00
2019-01-27T04:49:37.168Z,0.00
2019-01-27T04:50:37.123Z,0.00
2019-01-27T04:51:37.105Z,0.00
2019-01-27T04:52:37.098Z,0.00
2019-01-27T04:53:37.086Z,0.00
2019-01-27T04:54:37.081Z,0.00
2019-01-27T04:55:37.080Z,0.00
2019-01-27T04:56:37.049Z,0.00
2019-01-27T04:57:37.042Z,0.00
2019-01-27T04:58:37.026Z,0.00
2019-01-27T04:59:37.018Z,0.00
2019-01-27T05:00:37.024Z,0.00
2019-01-27T05:01:36.994Z,0.00
2019-01-27T05:02:36.981Z,0.00
2019-01-27T05:03:36.972Z,0.00
2019-01-27T05:04:36.960Z,0.00
2019-01-27T05:05:36.981Z,0.00
2019-01-27T05:06:36.945Z,0.00
2019-01-27T05:07:36.925Z,0.00
2019-01-27T05:08:36.915Z,0.00
2019-01-27T05:09:36.902Z,0.00
2019-01-27T05:10:36.912Z,0.00
2019-01-27T05:11:36.884Z,0.00
2019-01-27T05:12:36.871Z,0.00
2019-01-27T05:13:36.859Z,0.00
2019-01-27T05:14:36.851Z,0.00
2019-01-27T05:15:36.857Z,0.00
2019-01-27T05:16:36.829Z,0.00
2019-01-27T05:17:36.815Z,0.00
2019-01-27T05:18:36.802Z,0.00
2019-01-27T05:19:36.791Z,0.00
2019-01-27T05:20:36.814Z,0.00
2019-01-27T05:21:36.769Z,0.00
2019-01-27T05:22:36.758Z,0.00
2019-01-27T05:23:36.755Z,0.00
2019-01-27T05:24:36.735Z,0.00
2019-01-27T05:25:36.734Z,0.00
2019-01-27T05:26:36.730Z,0.00
2019-01-27T05:27:36.704Z,0.00
2019-01-27T05:28:36.692Z,0.00
2019-01-27T05:29:36.682Z,0.00
2019-01-27T05:30:36.667Z,0.00
2019-01-27T05:31:36.676Z,0.00
2019-01-27T05:32:36.646Z,0.00
2019-01-27T05:33:36.634Z,0.00
2019-01-27T05:34:36.623Z,0.00
2019-01-27T05:35:36.612Z,0.00
2019-01-27T05:36:36.620Z,0.00
2019-01-27T05:37:36.592Z,0.00
2019-01-27T05:38:36.579Z,0.00
2019-01-27T05:39:36.567Z,0.00
2019-01-27T05:40:36.562Z,0.00
2019-01-27T05:41:36.578Z,0.00
2019-01-27T05:42:36.532Z,0.00
2019-01-27T05:43:36.520Z,0.00
2019-01-27T05:44:36.510Z,0.00
2019-01-27T05:45:36.499Z,0.00
2019-01-27T05:46:36.518Z,0.00
2019-01-27T05:47:36.480Z,0.00
2019-01-27T05:48:36.466Z,0.00
2019-01-27T05:49:36.455Z,0.00
2019-01-27T05:50:36.444Z,0.00
2019-01-27T05:51:36.435Z,0.00
2019-01-27T05:52:36.442Z,0.00
2019-01-27T05:53:36.411Z,0.00
2019-01-27T05:54:36.401Z,0.00
2019-01-27T05:55:36.395Z,0.00
2019-01-27T05:56:36.379Z,0.00
2019-01-27T05:57:36.387Z,0.00
2019-01-27T05:58:36.356Z,0.00
2019-01-27T05:59:36.342Z,0.00
2019-01-27T06:00:36.333Z,0.00
2019-01-27T06:01:36.321Z,0.00
2019-01-27T06:02:36.330Z,0.00
2019-01-27T06:03:36.297Z,0.00
2019-01-27T06:04:36.292Z,0.00
2019-01-27T06:05:36.280Z,0.00
2019-01-27T06:06:36.283Z,0.00
2019-01-27T06:07:36.279Z,0.00
2019-01-27T06:08:36.244Z,0.00
2019-01-27T06:09:36.235Z,0.00
2019-01-27T06:10:36.224Z,0.00
2019-01-27T06:11:36.212Z,0.00
2019-01-27T06:12:36.219Z,0.00
2019-01-27T06:13:36.187Z,0.00
2019-01-27T06:14:36.176Z,0.00
2019-01-27T06:15:36.168Z,0.00
2019-01-27T06:16:36.157Z,0.00
2019-01-27T06:17:36.162Z,0.00
2019-01-27T06:18:36.132Z,0.00
2019-01-27T06:19:36.121Z,0.00
2019-01-27T06:20:36.113Z,0.00
2019-01-27T06:21:36.099Z,0.00
2019-01-27T06:22:36.105Z,0.00
2019-01-27T06:23:36.080Z,0.00
2019-01-27T06:24:36.065Z,0.00
2019-01-27T06:25:36.056Z,0.00
2019-01-27T06:26:36.043Z,0.00
2019-01-27T06:27:36.063Z,0.00
2019-01-27T06:28:36.020Z,0.00
2019-01-27T06:29:36.010Z,0.00
2019-01-27T06:30:35.998Z,0.00
2019-01-27T06:31:35.993Z,0.00
2019-01-27T06:32:35.979Z,0.00
2019-01-27T06:33:35.983Z,0.00
2019-01-27T06:34:35.953Z,0.00
2019-01-27T06:35:35.944Z,0.00
2019-01-27T06:36:35.932Z,0.00
2019-01-27T06:37:35.920Z,0.00
2019-01-27T06:38:35.928Z,0.00
2019-01-27T06:39:35.897Z,0.00
2019-01-27T06:40:35.886Z,0.00
2019-01-27T06:41:35.875Z,0.00
2019-01-27T06:42:35.867Z,0.00
2019-01-27T06:43:35.871Z,0.00
2019-01-27T06:44:35.844Z,0.00
2019-01-27T06:45:35.840Z,0.00
2019-01-27T06:46:35.820Z,0.00
2019-01-27T06:47:35.809Z,0.00
2019-01-27T06:48:35.816Z,0.00
2019-01-27T06:49:35.786Z,0.00
2019-01-27T06:50:35.776Z,0.00
2019-01-27T06:51:35.765Z,0.00
2019-01-27T06:52:35.753Z,0.00
2019-01-27T06:53:35.762Z,0.00
2019-01-27T06:54:35.731Z,0.00
2019-01-27T06:55:35.723Z,0.00
2019-01-27T06:56:35.715Z,0.00
2019-01-27T06:57:35.698Z,0.00
2019-01-27T06:58:35.705Z,0.00
2019-01-27T06:59:35.678Z,0.00
2019-01-27T07:00:35.665Z,0.00
2019-01-27T07:01:35.652Z,0.00
2019-01-27T07:02:35.643Z,0.00
2019-01-27T07:03:35.679Z,0.00
2019-01-27T07:04:35.622Z,0.00
2019-01-27T07:05:35.610Z,0.00
2019-01-27T07:06:35.600Z,0.00
2019-01-27T07:07:35.590Z,0.00
2019-01-27T07:08:35.598Z,0.00
2019-01-27T07:09:35.565Z,0.00
2019-01-27T07:10:35.553Z,0.00
2019-01-27T07:11:35.546Z,0.00
2019-01-27T07:12:35.534Z,0.00
2019-01-27T07:13:35.584Z,0.00
2019-01-27T07:14:35.510Z,0.00
2019-01-27T07:15:35.500Z,0.00
2019-01-27T07:16:35.487Z,0.00
2019-01-27T07:17:35.479Z,0.00
2019-01-27T07:18:35.465Z,0.00
2019-01-27T07:19:35.473Z,0.00
2019-01-27T07:20:35.443Z,0.00
2019-01-27T07:21:35.430Z,0.00
2019-01-27T07:22:35.420Z,0.00
2019-01-27T07:23:35.409Z,0.00
2019-01-27T07:24:35.416Z,0.00
2019-01-27T07:25:35.387Z,0.00
2019-01-27T07:26:35.376Z,0.00
2019-01-27T07:27:35.367Z,0.00
2019-01-27T07:28:35.352Z,0.00
2019-01-27T07:29:35.365Z,0.00
2019-01-27T07:30:35.336Z,0.00
2019-01-27T07:31:35.322Z,0.00
2019-01-27T07:32:35.308Z,0.00
2019-01-27T07:33:35.297Z,0.00
2019-01-27T07:34:35.339Z,0.00
2019-01-27T07:35:35.279Z,5.62
2019-01-27T07:36:35.305Z,5.62
2019-01-27T07:37:35.253Z,5.62
2019-01-27T07:38:35.241Z,5.62
2019-01-27T07:39:35.231Z,5.62
2019-01-27T07:40:35.237Z,5.62
2019-01-27T07:41:35.207Z,5.62
2019-01-27T07:42:35.196Z,5.62
2019-01-27T07:43:35.186Z,5.62
2019-01-27T07:44:35.175Z,5.62
2019-01-27T07:45:35.193Z,5.62
2019-01-27T07:46:35.153Z,5.62
2019-01-27T07:47:35.144Z,5.62
2019-01-27T07:48:35.144Z,5.62
2019-01-27T07:49:35.120Z,5.62
2019-01-27T07:50:35.504Z,5.62
2019-01-27T07:51:35.143Z,5.62
2019-01-27T07:52:35.158Z,5.62
2019-01-27T07:53:35.074Z,5.62
2019-01-27T07:54:35.064Z,11.25
2019-01-27T07:55:35.102Z,11.25
2019-01-27T07:56:35.063Z,11.25
2019-01-27T07:57:35.032Z,16.88
2019-01-27T07:58:35.021Z,16.88
2019-01-27T07:59:35.011Z,16.88
2019-01-27T08:00:34.998Z,16.88
2019-01-27T08:01:35.009Z,16.88
2019-01-27T08:02:35.611Z,11.25
2019-01-27T08:03:34.967Z,11.25
2019-01-27T08:04:34.955Z,11.25
2019-01-27T08:05:34.943Z,11.25
2019-01-27T08:06:34.950Z,11.25
2019-01-27T08:07:34.928Z,11.25
2019-01-27T08:08:34.909Z,11.25
2019-01-27T08:09:34.899Z,11.25
2019-01-27T08:10:34.894Z,11.25
2019-01-27T08:11:34.929Z,16.88
2019-01-27T08:12:34.868Z,16.88
2019-01-27T08:13:34.856Z,22.50
2019-01-27T08:14:34.857Z,22.50
2019-01-27T08:15:34.839Z,28.12
2019-01-27T08:16:34.819Z,33.75
2019-01-27T08:17:34.827Z,33.75
2019-01-27T08:18:34.798Z,28.12
2019-01-27T08:19:34.788Z,22.50
2019-01-27T08:20:34.775Z,16.88
2019-01-27T08:21:34.765Z,16.88
2019-01-27T08:22:34.773Z,11.25
2019-01-27T08:23:34.742Z,11.25
2019-01-27T08:24:34.730Z,11.25
2019-01-27T08:25:34.724Z,11.25
2019-01-27T08:26:34.708Z,11.25
2019-01-27T08:27:34.717Z,11.25
2019-01-27T08:28:34.687Z,11.25
2019-01-27T08:29:34.675Z,11.25
2019-01-27T08:30:34.664Z,16.88
2019-01-27T08:31:34.652Z,11.25
2019-01-27T08:32:34.660Z,11.25
2019-01-27T08:33:34.629Z,16.88
2019-01-27T08:34:34.621Z,16.88
2019-01-27T08:35:34.611Z,28.12
2019-01-27T08:36:34.733Z,39.38
2019-01-27T08:37:34.647Z,118.12
2019-01-27T08:38:34.578Z,123.75
2019-01-27T08:39:34.566Z,298.12
2019-01-27T08:40:34.551Z,174.38
2019-01-27T08:41:34.547Z,28.12
2019-01-27T08:42:34.533Z,16.88
2019-01-27T08:43:34.551Z,11.25
2019-01-27T08:44:34.508Z,11.25
2019-01-27T08:45:34.540Z,11.25
2019-01-27T08:46:34.484Z,11.25
2019-01-27T08:47:34.475Z,11.25
2019-01-27T08:48:34.493Z,16.88
2019-01-27T08:49:34.577Z,16.88
2019-01-27T08:50:34.446Z,22.50
2019-01-27T08:51:34.437Z,22.50
2019-01-27T08:52:34.458Z,16.88
2019-01-27T08:53:34.429Z,16.88
2019-01-27T08:54:34.404Z,16.88
2019-01-27T08:55:34.387Z,16.88
2019-01-27T08:56:34.460Z,16.88
2019-01-27T08:57:34.380Z,16.88
2019-01-27T08:58:34.431Z,28.12
2019-01-27T08:59:34.341Z,33.75
2019-01-27T09:00:34.329Z,33.75
2019-01-27T09:01:34.319Z,39.38
2019-01-27T09:02:34.308Z,33.75
2019-01-27T09:03:34.314Z,28.12
2019-01-27T09:04:34.285Z,28.12
2019-01-27T09:05:34.287Z,28.12
2019-01-27T09:06:34.264Z,45.00
2019-01-27T09:07:34.252Z,61.88
2019-01-27T09:08:34.261Z,61.88
2019-01-27T09:09:34.229Z,56.25
2019-01-27T09:10:34.218Z,56.25
2019-01-27T09:11:34.208Z,56.25
2019-01-27T09:12:34.197Z,56.25
2019-01-27T09:13:34.204Z,56.25
2019-01-27T09:14:34.177Z,56.25
2019-01-27T09:15:34.161Z,61.88
2019-01-27T09:16:34.162Z,61.88
2019-01-27T09:17:34.142Z,56.25
2019-01-27T09:18:34.166Z,50.62
2019-01-27T09:19:34.120Z,45.00
2019-01-27T09:20:34.195Z,45.00
2019-01-27T09:21:34.095Z,39.38
2019-01-27T09:22:34.090Z,39.38
2019-01-27T09:23:34.073Z,39.38
2019-01-27T09:24:42.907Z,39.38
2019-01-27T09:25:34.051Z,39.38
2019-01-27T09:26:44.002Z,39.38
2019-01-27T09:27:34.030Z,39.38
2019-01-27T09:28:34.018Z,45.00
2019-01-27T09:29:34.111Z,50.62
2019-01-27T09:30:33.995Z,50.62
2019-01-27T09:31:33.985Z,45.00
2019-01-27T09:32:33.974Z,39.38
2019-01-27T09:33:33.962Z,33.75
2019-01-27T09:34:33.973Z,33.75
2019-01-27T09:35:33.967Z,33.75
2019-01-27T09:36:33.940Z,28.12
2019-01-27T09:37:33.920Z,28.12
2019-01-27T09:38:33.910Z,22.50
2019-01-27T09:39:33.954Z,22.50
2019-01-27T09:40:33.887Z,22.50
2019-01-27T09:41:33.873Z,22.50
2019-01-27T09:42:33.872Z,22.50
2019-01-27T09:43:33.854Z,22.50
2019-01-27T09:44:33.875Z,22.50
2019-01-27T09:45:33.829Z,22.50
2019-01-27T09:46:33.818Z,22.50
2019-01-27T09:47:33.808Z,22.50
2019-01-27T09:48:33.803Z,22.50
2019-01-27T09:49:33.784Z,22.50
2019-01-27T09:50:33.794Z,22.50
2019-01-27T09:51:33.762Z,22.50
2019-01-27T09:52:33.756Z,28.12
2019-01-27T09:53:33.744Z,28.12
2019-01-27T09:54:33.729Z,33.75
2019-01-27T09:55:33.736Z,33.75
2019-01-27T09:56:33.707Z,33.75
2019-01-27T09:57:43.260Z,39.38
2019-01-27T09:58:33.684Z,45.00
2019-01-27T09:59:33.675Z,45.00
2019-01-27T10:00:33.682Z,56.25
2019-01-27T10:01:33.654Z,56.25
2019-01-27T10:02:34.962Z,61.88
2019-01-27T10:03:33.628Z,56.25
2019-01-27T10:04:33.822Z,56.25
2019-01-27T10:05:33.633Z,56.25
2019-01-27T10:06:33.602Z,56.25
2019-01-27T10:07:33.582Z,61.88
2019-01-27T10:08:33.573Z,61.88
2019-01-27T10:09:33.564Z,61.88
2019-01-27T10:10:33.570Z,56.25
2019-01-27T10:11:33.539Z,50.62
2019-01-27T10:12:33.541Z,50.62
2019-01-27T10:13:33.517Z,50.62
2019-01-27T10:14:33.506Z,50.62
2019-01-27T10:15:33.849Z,45.00
2019-01-27T10:16:33.490Z,45.00
2019-01-27T10:17:33.479Z,45.00
2019-01-27T10:18:33.466Z,45.00
2019-01-27T10:19:33.451Z,39.38
2019-01-27T10:20:33.441Z,39.38
2019-01-27T10:21:33.457Z,39.38
2019-01-27T10:22:33.435Z,39.38
2019-01-27T10:23:33.406Z,39.38
2019-01-27T10:24:33.412Z,39.38
2019-01-27T10:25:33.385Z,39.38
2019-01-27T10:26:41.724Z,45.00
2019-01-27T10:27:33.371Z,45.00
2019-01-27T10:28:33.349Z,45.00
2019-01-27T10:29:33.348Z,50.62
2019-01-27T10:30:33.328Z,50.62
2019-01-27T10:31:33.363Z,45.00
2019-01-27T10:32:33.309Z,45.00
2019-01-27T10:33:33.294Z,45.00
2019-01-27T10:34:33.284Z,45.00
2019-01-27T10:35:33.272Z,39.38
2019-01-27T10:36:33.265Z,39.38
2019-01-27T10:37:33.294Z,33.75
2019-01-27T10:38:33.244Z,33.75
2019-01-27T10:39:33.238Z,28.12
2019-01-27T10:40:39.891Z,28.12
2019-01-27T10:41:33.208Z,28.12
2019-01-27T10:42:33.215Z,22.50
2019-01-27T10:43:33.190Z,28.12
2019-01-27T10:44:33.174Z,28.12
2019-01-27T10:45:33.163Z,28.12
2019-01-27T10:46:33.149Z,28.12
2019-01-27T10:47:33.163Z,33.75
2019-01-27T10:48:33.127Z,33.75
2019-01-27T10:49:33.120Z,33.75
2019-01-27T10:50:33.215Z,33.75
2019-01-27T10:51:33.114Z,33.75
2019-01-27T10:52:33.115Z,33.75
2019-01-27T10:53:34.981Z,33.75
2019-01-27T10:54:33.196Z,33.75
2019-01-27T10:55:33.066Z,33.75
2019-01-27T10:56:33.039Z,33.75
2019-01-27T10:57:33.026Z,28.12
2019-01-27T10:58:33.034Z,28.12
2019-01-27T10:59:34.509Z,28.12
2019-01-27T11:00:32.997Z,28.12
2019-01-27T11:01:32.982Z,28.12
2019-01-27T11:02:36.917Z,28.12
2019-01-27T11:03:32.977Z,28.12
2019-01-27T11:04:32.994Z,33.75
2019-01-27T11:05:32.943Z,33.75
2019-01-27T11:06:41.567Z,33.75
2019-01-27T11:07:32.922Z,33.75
2019-01-27T11:08:33.255Z,39.38
2019-01-27T11:09:41.402Z,39.38
2019-01-27T11:10:32.886Z,45.00
2019-01-27T11:11:32.871Z,45.00
2019-01-27T11:12:32.862Z,50.62
2019-01-27T11:13:32.879Z,45.00
2019-01-27T11:14:32.839Z,39.38
2019-01-27T11:15:33.449Z,33.75
2019-01-27T11:16:33.169Z,33.75
2019-01-27T11:17:32.806Z,28.12
2019-01-27T11:18:32.810Z,28.12
2019-01-27T11:19:32.837Z,28.12
2019-01-27T11:20:39.924Z,28.12
2019-01-27T11:21:32.769Z,28.12
2019-01-27T11:22:33.751Z,28.12
2019-01-27T11:23:32.939Z,28.12
2019-01-27T11:24:32.782Z,28.12
2019-01-27T11:25:32.715Z,28.12
2019-01-27T11:26:32.705Z,28.12
2019-01-27T11:27:33.208Z,28.12
2019-01-27T11:28:32.687Z,28.12
2019-01-27T11:29:32.689Z,22.50
2019-01-27T11:30:32.658Z,22.50
2019-01-27T11:31:32.648Z,22.50
2019-01-27T11:32:32.645Z,22.50
2019-01-27T11:33:32.627Z,16.88
2019-01-27T11:34:32.639Z,16.88
2019-01-27T11:35:32.697Z,22.50
2019-01-27T11:36:32.746Z,22.50
2019-01-27T11:37:32.660Z,22.50
2019-01-27T11:38:32.711Z,22.50
2019-01-27T11:39:32.583Z,28.12
2019-01-27T11:40:32.554Z,28.12
2019-01-27T11:41:32.665Z,28.12
2019-01-27T11:43:24.859Z,28.12
2019-01-27T11:44:24.864Z,22.50
2019-01-27T11:45:24.835Z,22.50
2019-01-27T11:46:24.827Z,22.50
2019-01-27T11:47:24.815Z,22.50
2019-01-27T11:48:24.802Z,22.50
2019-01-27T11:49:24.810Z,22.50
2019-01-27T11:50:24.784Z,22.50
2019-01-27T11:51:24.776Z,22.50
2019-01-27T11:52:33.114Z,22.50
2019-01-27T11:53:24.747Z,22.50
2019-01-27T11:54:24.827Z,16.88
2019-01-27T11:55:24.725Z,22.50
2019-01-27T11:56:24.714Z,22.50
2019-01-27T11:57:24.704Z,22.50
2019-01-27T11:58:24.692Z,22.50
2019-01-27T11:59:24.685Z,28.12
2019-01-27T12:00:24.690Z,28.12
2019-01-27T12:01:24.662Z,33.75
2019-01-27T12:02:24.731Z,39.38
2019-01-27T12:03:24.642Z,39.38
2019-01-27T12:04:24.630Z,33.75
2019-01-27T12:05:24.634Z,33.75
2019-01-27T12:06:24.706Z,33.75
2019-01-27T12:07:24.740Z,33.75
2019-01-27T12:08:24.622Z,33.75
2019-01-27T12:09:24.718Z,33.75
2019-01-27T12:10:24.588Z,33.75
2019-01-27T12:11:24.554Z,33.75
2019-01-27T12:12:24.541Z,33.75
2019-01-27T12:13:24.583Z,33.75
2019-01-27T12:14:24.521Z,33.75
2019-01-27T12:15:24.529Z,39.38
2019-01-27T12:16:24.495Z,39.38
2019-01-27T12:17:24.487Z,45.00
2019-01-27T12:18:24.479Z,45.00
2019-01-27T12:19:24.538Z,45.00
2019-01-27T12:20:24.470Z,50.62
2019-01-27T12:21:24.439Z,56.25
2019-01-27T12:22:24.428Z,61.88
2019-01-27T12:23:24.421Z,61.88
2019-01-27T12:24:32.882Z,56.25
2019-01-27T12:25:33.093Z,50.62
2019-01-27T12:26:24.385Z,50.62
2019-01-27T12:27:24.371Z,56.25
2019-01-27T12:28:24.368Z,56.25
2019-01-27T12:29:25.547Z,61.88
2019-01-27T12:30:24.339Z,50.62
2019-01-27T12:31:24.349Z,45.00
2019-01-27T12:32:34.693Z,39.38
2019-01-27T12:33:24.307Z,33.75
2019-01-27T12:34:24.299Z,33.75
2019-01-27T12:35:24.287Z,28.12
2019-01-27T12:36:24.313Z,28.12
2019-01-27T12:37:24.263Z,28.12
2019-01-27T12:38:24.254Z,22.50
2019-01-27T12:39:24.246Z,22.50
2019-01-27T12:40:24.231Z,28.12
2019-01-27T12:41:24.245Z,28.12
2019-01-27T12:42:24.209Z,28.12
2019-01-27T12:43:24.197Z,28.12
2019-01-27T12:44:24.185Z,28.12
2019-01-27T12:45:24.175Z,28.12
2019-01-27T12:46:24.183Z,28.12
2019-01-27T12:47:24.152Z,22.50
2019-01-27T12:48:24.144Z,22.50
2019-01-27T12:49:24.136Z,28.12
2019-01-27T12:50:24.138Z,28.12
2019-01-27T12:51:33.806Z,28.12
2019-01-27T12:52:24.097Z,33.75
2019-01-27T12:53:24.101Z,39.38
2019-01-27T12:54:24.075Z,45.00
2019-01-27T12:55:24.063Z,56.25
2019-01-27T12:56:24.072Z,78.75
2019-01-27T12:57:24.043Z,112.50
2019-01-27T12:58:24.080Z,135.00
2019-01-27T12:59:24.024Z,157.50
2019-01-27T13:00:24.041Z,151.88
2019-01-27T13:01:24.047Z,135.00
2019-01-27T13:02:23.987Z,140.62
2019-01-27T13:03:23.983Z,163.12
2019-01-27T13:04:33.574Z,168.75
2019-01-27T13:05:33.436Z,174.38
2019-01-27T13:06:23.943Z,236.25
2019-01-27T13:07:24.648Z,174.38
2019-01-27T13:08:23.929Z,157.50